Archival Weather

Republic

Farmingdale, New York (KFRG)

Report from: Monday, February 12, 2024 5:53 PM EST
Current time: Friday, June 14, 2024 9:15 AM EDT

Current weather – Weather history – Daily summaries
Weather forecast

Temperature5.6°C (42.1°F)
Dew point0.0°C (32.0°F)
Winds Calm
Visibility10 mi. (16.1 km)
Clouds Ceiling: Broken clouds 10,000 ft. (3,048 m)
Altimeter29.86 in.Hg (1011 mB)
Relative humidity67 %
Density altitude-975 ft. (-297 m)
Sea-level pressure101.1 kPa (1011 mB, 29.86 in.Hg)
Remarks Automated weather observing station without precipitation discriminator
Flight conditions Visual Meteorological Conditions
Raw dataKFRG 122253Z 00000KT 10SM BKN100 06/00 A2986 RMK AO1 SLP113 T00560000
An error has occurred. This application may no longer respond until reloaded. Reload 🗙